sensor_id;sensor_type;location;lat;lon;timestamp;P1;durP1;ratioP1;P2;durP2;ratioP2
25717;SDS011;13574;52.040;5.692;2023-02-26T00:02:16;4.72;;;2.15;;
25717;SDS011;13574;52.040;5.692;2023-02-26T00:04:42;8.27;;;2.83;;
25717;SDS011;13574;52.040;5.692;2023-02-26T00:07:08;5.78;;;2.50;;
25717;SDS011;13574;52.040;5.692;2023-02-26T00:09:33;8.15;;;2.65;;
25717;SDS011;13574;52.040;5.692;2023-02-26T00:11:59;10.32;;;2.80;;
25717;SDS011;13574;52.040;5.692;2023-02-26T00:14:25;6.68;;;2.50;;
25717;SDS011;13574;52.040;5.692;2023-02-26T00:19:49;7.05;;;2.35;;
25717;SDS011;13574;52.040;5.692;2023-02-26T00:22:15;7.90;;;2.65;;
25717;SDS011;13574;52.040;5.692;2023-02-26T00:24:41;8.50;;;2.55;;
25717;SDS011;13574;52.040;5.692;2023-02-26T00:27:06;6.82;;;2.22;;
25717;SDS011;13574;52.040;5.692;2023-02-26T00:29:35;7.40;;;2.42;;
25717;SDS011;13574;52.040;5.692;2023-02-26T00:32:01;10.40;;;3.10;;
25717;SDS011;13574;52.040;5.692;2023-02-26T00:34:27;5.93;;;2.30;;
25717;SDS011;13574;52.040;5.692;2023-02-26T00:41:52;11.23;;;2.63;;
25717;SDS011;13574;52.040;5.692;2023-02-26T00:44:18;6.38;;;2.25;;
25717;SDS011;13574;52.040;5.692;2023-02-26T00:46:48;8.55;;;2.78;;
25717;SDS011;13574;52.040;5.692;2023-02-26T00:51:55;10.63;;;2.17;;
25717;SDS011;13574;52.040;5.692;2023-02-26T00:54:30;9.52;;;2.47;;
25717;SDS011;13574;52.040;5.692;2023-02-26T00:56:57;3.97;;;2.10;;
25717;SDS011;13574;52.040;5.692;2023-02-26T00:59:23;5.90;;;2.22;;
25717;SDS011;13574;52.040;5.692;2023-02-26T01:01:49;11.88;;;2.28;;
25717;SDS011;13574;52.040;5.692;2023-02-26T01:04:17;6.97;;;2.00;;
25717;SDS011;13574;52.040;5.692;2023-02-26T01:06:46;8.18;;;2.00;;
25717;SDS011;13574;52.040;5.692;2023-02-26T01:09:33;5.72;;;2.35;;
25717;SDS011;13574;52.040;5.692;2023-02-26T01:12:00;6.40;;;2.03;;
25717;SDS011;13574;52.040;5.692;2023-02-26T01:14:31;11.32;;;2.28;;
25717;SDS011;13574;52.040;5.692;2023-02-26T01:17:12;6.32;;;1.95;;
25717;SDS011;13574;52.040;5.692;2023-02-26T01:20:08;8.27;;;1.90;;
25717;SDS011;13574;52.040;5.692;2023-02-26T01:25:23;3.72;;;1.90;;
25717;SDS011;13574;52.040;5.692;2023-02-26T01:27:52;5.72;;;1.75;;
25717;SDS011;13574;52.040;5.692;2023-02-26T01:30:18;5.75;;;2.03;;
25717;SDS011;13574;52.040;5.692;2023-02-26T01:46:13;4.07;;;1.70;;
25717;SDS011;13574;52.040;5.692;2023-02-26T01:48:53;6.93;;;1.80;;
25717;SDS011;13574;52.040;5.692;2023-02-26T01:52:06;5.43;;;1.55;;
25717;SDS011;13574;52.040;5.692;2023-02-26T01:54:12;6.78;;;1.95;;
25717;SDS011;13574;52.040;5.692;2023-02-26T01:56:38;6.97;;;1.80;;
25717;SDS011;13574;52.040;5.692;2023-02-26T01:59:05;5.10;;;1.83;;
25717;SDS011;13574;52.040;5.692;2023-02-26T02:01:36;7.35;;;1.90;;
25717;SDS011;13574;52.040;5.692;2023-02-26T02:04:04;9.77;;;1.83;;
25717;SDS011;13574;52.040;5.692;2023-02-26T02:06:32;8.30;;;2.10;;
25717;SDS011;13574;52.040;5.692;2023-02-26T02:08:58;5.25;;;1.85;;
25717;SDS011;13574;52.040;5.692;2023-02-26T02:11:23;7.55;;;1.60;;
25717;SDS011;13574;52.040;5.692;2023-02-26T02:16:31;7.78;;;1.75;;
25717;SDS011;13574;52.040;5.692;2023-02-26T02:19:23;5.63;;;1.88;;
25717;SDS011;13574;52.040;5.692;2023-02-26T02:33:33;6.10;;;2.03;;
25717;SDS011;13574;52.040;5.692;2023-02-26T02:36:16;5.75;;;1.35;;
25717;SDS011;13574;52.040;5.692;2023-02-26T02:38:56;4.38;;;1.23;;
25717;SDS011;13574;52.040;5.692;2023-02-26T02:41:29;3.70;;;1.40;;
25717;SDS011;13574;52.040;5.692;2023-02-26T02:44:02;3.85;;;1.30;;
25717;SDS011;13574;52.040;5.692;2023-02-26T02:46:31;4.40;;;1.40;;
25717;SDS011;13574;52.040;5.692;2023-02-26T02:49:19;7.65;;;1.25;;
25717;SDS011;13574;52.040;5.692;2023-02-26T02:52:01;6.47;;;1.58;;
25717;SDS011;13574;52.040;5.692;2023-02-26T02:57:16;5.38;;;1.25;;
25717;SDS011;13574;52.040;5.692;2023-02-26T02:59:47;8.40;;;1.30;;
25717;SDS011;13574;52.040;5.692;2023-02-26T03:02:38;5.43;;;1.38;;
25717;SDS011;13574;52.040;5.692;2023-02-26T03:05:12;4.88;;;1.20;;
25717;SDS011;13574;52.040;5.692;2023-02-26T03:07:40;6.30;;;1.30;;
25717;SDS011;13574;52.040;5.692;2023-02-26T03:10:11;5.50;;;1.30;;
25717;SDS011;13574;52.040;5.692;2023-02-26T03:12:38;7.40;;;1.17;;
25717;SDS011;13574;52.040;5.692;2023-02-26T03:15:03;4.82;;;1.10;;
25717;SDS011;13574;52.040;5.692;2023-02-26T03:17:35;4.93;;;1.23;;
25717;SDS011;13574;52.040;5.692;2023-02-26T03:28:10;7.35;;;1.20;;
25717;SDS011;13574;52.040;5.692;2023-02-26T03:30:53;3.28;;;1.00;;
25717;SDS011;13574;52.040;5.692;2023-02-26T03:33:37;8.98;;;1.40;;
25717;SDS011;13574;52.040;5.692;2023-02-26T03:36:32;3.83;;;0.95;;
25717;SDS011;13574;52.040;5.692;2023-02-26T03:46:50;8.38;;;1.20;;
25717;SDS011;13574;52.040;5.692;2023-02-26T03:49:22;3.30;;;1.10;;
25717;SDS011;13574;52.040;5.692;2023-02-26T03:51:51;4.35;;;1.30;;
25717;SDS011;13574;52.040;5.692;2023-02-26T03:54:22;6.10;;;1.35;;
25717;SDS011;13574;52.040;5.692;2023-02-26T03:56:51;4.85;;;1.20;;
25717;SDS011;13574;52.040;5.692;2023-02-26T03:59:17;5.50;;;1.30;;
25717;SDS011;13574;52.040;5.692;2023-02-26T04:01:45;7.90;;;1.10;;
25717;SDS011;13574;52.040;5.692;2023-02-26T04:04:18;4.68;;;0.90;;
25717;SDS011;13574;52.040;5.692;2023-02-26T04:06:55;4.40;;;1.08;;
25717;SDS011;13574;52.040;5.692;2023-02-26T04:09:21;7.63;;;1.20;;
25717;SDS011;13574;52.040;5.692;2023-02-26T04:11:48;4.43;;;1.00;;
25717;SDS011;13574;52.040;5.692;2023-02-26T04:14:15;5.43;;;0.85;;
25717;SDS011;13574;52.040;5.692;2023-02-26T04:16:41;4.75;;;1.15;;
25717;SDS011;13574;52.040;5.692;2023-02-26T04:19:08;3.42;;;1.23;;
25717;SDS011;13574;52.040;5.692;2023-02-26T04:21:33;2.47;;;1.38;;
25717;SDS011;13574;52.040;5.692;2023-02-26T04:23:59;3.80;;;1.02;;
25717;SDS011;13574;52.040;5.692;2023-02-26T04:26:25;4.82;;;1.20;;
25717;SDS011;13574;52.040;5.692;2023-02-26T04:28:51;6.15;;;1.10;;
25717;SDS011;13574;52.040;5.692;2023-02-26T04:31:16;4.68;;;1.15;;
25717;SDS011;13574;52.040;5.692;2023-02-26T04:33:42;5.75;;;1.05;;
25717;SDS011;13574;52.040;5.692;2023-02-26T04:36:08;5.05;;;1.10;;
25717;SDS011;13574;52.040;5.692;2023-02-26T04:38:34;5.97;;;1.20;;
25717;SDS011;13574;52.040;5.692;2023-02-26T04:41:00;4.53;;;1.15;;
25717;SDS011;13574;52.040;5.692;2023-02-26T04:43:26;6.22;;;1.40;;
25717;SDS011;13574;52.040;5.692;2023-02-26T04:45:51;3.50;;;0.95;;
25717;SDS011;13574;52.040;5.692;2023-02-26T04:48:17;3.88;;;1.00;;
25717;SDS011;13574;52.040;5.692;2023-02-26T04:50:43;2.85;;;0.82;;
25717;SDS011;13574;52.040;5.692;2023-02-26T04:53:09;2.60;;;0.85;;
25717;SDS011;13574;52.040;5.692;2023-02-26T04:55:35;2.35;;;0.80;;
25717;SDS011;13574;52.040;5.692;2023-02-26T04:58:01;4.30;;;1.10;;
25717;SDS011;13574;52.040;5.692;2023-02-26T05:00:27;4.13;;;0.88;;
25717;SDS011;13574;52.040;5.692;2023-02-26T05:02:53;2.25;;;1.10;;
25717;SDS011;13574;52.040;5.692;2023-02-26T05:05:19;5.80;;;1.08;;
25717;SDS011;13574;52.040;5.692;2023-02-26T05:07:45;4.97;;;1.10;;
25717;SDS011;13574;52.040;5.692;2023-02-26T05:10:10;8.60;;;1.17;;
25717;SDS011;13574;52.040;5.692;2023-02-26T05:12:36;3.72;;;1.20;;
25717;SDS011;13574;52.040;5.692;2023-02-26T05:15:02;5.10;;;1.25;;
25717;SDS011;13574;52.040;5.692;2023-02-26T05:17:29;4.88;;;1.30;;
25717;SDS011;13574;52.040;5.692;2023-02-26T05:19:54;4.43;;;1.00;;
25717;SDS011;13574;52.040;5.692;2023-02-26T05:22:20;6.38;;;1.23;;
25717;SDS011;13574;52.040;5.692;2023-02-26T05:24:45;5.97;;;1.27;;
25717;SDS011;13574;52.040;5.692;2023-02-26T05:27:12;3.33;;;0.80;;
25717;SDS011;13574;52.040;5.692;2023-02-26T05:29:39;4.75;;;0.90;;
25717;SDS011;13574;52.040;5.692;2023-02-26T05:32:06;3.97;;;1.15;;
25717;SDS011;13574;52.040;5.692;2023-02-26T05:34:32;1.70;;;0.80;;
25717;SDS011;13574;52.040;5.692;2023-02-26T05:36:57;2.17;;;1.00;;
25717;SDS011;13574;52.040;5.692;2023-02-26T05:39:23;4.40;;;0.90;;
25717;SDS011;13574;52.040;5.692;2023-02-26T05:41:49;2.55;;;0.77;;
25717;SDS011;13574;52.040;5.692;2023-02-26T05:44:16;3.60;;;1.00;;
25717;SDS011;13574;52.040;5.692;2023-02-26T05:46:41;3.80;;;0.80;;
25717;SDS011;13574;52.040;5.692;2023-02-26T05:49:07;4.82;;;0.90;;
25717;SDS011;13574;52.040;5.692;2023-02-26T05:51:33;2.10;;;0.80;;
25717;SDS011;13574;52.040;5.692;2023-02-26T05:53:58;6.63;;;1.10;;
25717;SDS011;13574;52.040;5.692;2023-02-26T05:56:24;5.05;;;1.10;;
25717;SDS011;13574;52.040;5.692;2023-02-26T05:58:50;3.90;;;1.27;;
25717;SDS011;13574;52.040;5.692;2023-02-26T06:01:15;4.82;;;0.88;;
25717;SDS011;13574;52.040;5.692;2023-02-26T06:03:41;5.63;;;0.98;;
25717;SDS011;13574;52.040;5.692;2023-02-26T06:06:09;6.35;;;1.23;;
25717;SDS011;13574;52.040;5.692;2023-02-26T06:08:36;6.20;;;1.20;;
25717;SDS011;13574;52.040;5.692;2023-02-26T06:11:02;4.15;;;1.00;;
25717;SDS011;13574;52.040;5.692;2023-02-26T06:13:28;4.30;;;1.10;;
25717;SDS011;13574;52.040;5.692;2023-02-26T06:15:54;5.05;;;1.10;;
25717;SDS011;13574;52.040;5.692;2023-02-26T06:18:20;2.55;;;0.88;;
25717;SDS011;13574;52.040;5.692;2023-02-26T06:20:45;8.90;;;1.00;;
25717;SDS011;13574;52.040;5.692;2023-02-26T06:23:11;5.57;;;1.15;;
25717;SDS011;13574;52.040;5.692;2023-02-26T06:25:39;2.17;;;1.23;;
25717;SDS011;13574;52.040;5.692;2023-02-26T06:28:05;3.72;;;0.82;;
25717;SDS011;13574;52.040;5.692;2023-02-26T06:30:31;1.50;;;0.70;;
25717;SDS011;13574;52.040;5.692;2023-02-26T06:32:57;1.45;;;0.60;;
25717;SDS011;13574;52.040;5.692;2023-02-26T06:35:22;3.30;;;0.70;;
25717;SDS011;13574;52.040;5.692;2023-02-26T06:37:48;2.80;;;0.73;;
25717;SDS011;13574;52.040;5.692;2023-02-26T06:40:14;2.97;;;0.88;;
25717;SDS011;13574;52.040;5.692;2023-02-26T06:42:40;6.10;;;0.93;;
25717;SDS011;13574;52.040;5.692;2023-02-26T06:45:06;3.03;;;0.88;;
25717;SDS011;13574;52.040;5.692;2023-02-26T06:47:32;4.60;;;1.00;;
25717;SDS011;13574;52.040;5.692;2023-02-26T06:49:57;4.38;;;0.80;;
25717;SDS011;13574;52.040;5.692;2023-02-26T06:52:23;5.30;;;0.98;;
25717;SDS011;13574;52.040;5.692;2023-02-26T06:54:49;2.83;;;0.60;;
25717;SDS011;13574;52.040;5.692;2023-02-26T06:57:15;3.22;;;0.70;;
25717;SDS011;13574;52.040;5.692;2023-02-26T06:59:41;5.65;;;0.80;;
25717;SDS011;13574;52.040;5.692;2023-02-26T07:02:08;4.43;;;0.90;;
25717;SDS011;13574;52.040;5.692;2023-02-26T07:04:43;3.90;;;0.85;;
25717;SDS011;13574;52.040;5.692;2023-02-26T07:07:10;5.80;;;1.00;;
25717;SDS011;13574;52.040;5.692;2023-02-26T07:09:36;3.47;;;0.98;;
25717;SDS011;13574;52.040;5.692;2023-02-26T07:12:02;3.13;;;0.80;;
25717;SDS011;13574;52.040;5.692;2023-02-26T07:14:28;7.95;;;0.93;;
25717;SDS011;13574;52.040;5.692;2023-02-26T07:16:54;4.72;;;1.02;;
25717;SDS011;13574;52.040;5.692;2023-02-26T07:19:20;4.03;;;0.70;;
25717;SDS011;13574;52.040;5.692;2023-02-26T07:21:45;2.65;;;0.60;;
25717;SDS011;13574;52.040;5.692;2023-02-26T07:24:12;4.53;;;1.02;;
25717;SDS011;13574;52.040;5.692;2023-02-26T07:26:38;5.03;;;0.95;;
25717;SDS011;13574;52.040;5.692;2023-02-26T07:29:07;2.03;;;0.65;;
25717;SDS011;13574;52.040;5.692;2023-02-26T07:31:33;3.67;;;1.02;;
25717;SDS011;13574;52.040;5.692;2023-02-26T07:33:58;3.95;;;0.77;;
25717;SDS011;13574;52.040;5.692;2023-02-26T07:36:24;5.35;;;1.10;;
25717;SDS011;13574;52.040;5.692;2023-02-26T07:38:50;3.83;;;1.00;;
25717;SDS011;13574;52.040;5.692;2023-02-26T07:41:16;7.20;;;1.00;;
25717;SDS011;13574;52.040;5.692;2023-02-26T07:43:41;4.47;;;0.80;;
25717;SDS011;13574;52.040;5.692;2023-02-26T07:46:07;2.85;;;0.77;;
25717;SDS011;13574;52.040;5.692;2023-02-26T07:48:33;2.38;;;0.70;;
25717;SDS011;13574;52.040;5.692;2023-02-26T07:50:59;4.25;;;0.88;;
25717;SDS011;13574;52.040;5.692;2023-02-26T07:53:24;3.38;;;0.80;;
25717;SDS011;13574;52.040;5.692;2023-02-26T07:55:50;1.73;;;0.80;;
25717;SDS011;13574;52.040;5.692;2023-02-26T07:58:16;3.53;;;1.00;;
25717;SDS011;13574;52.040;5.692;2023-02-26T08:00:42;2.05;;;0.95;;
25717;SDS011;13574;52.040;5.692;2023-02-26T08:03:08;3.70;;;0.68;;
25717;SDS011;13574;52.040;5.692;2023-02-26T08:05:34;2.90;;;0.88;;
25717;SDS011;13574;52.040;5.692;2023-02-26T08:07:59;2.25;;;0.90;;
25717;SDS011;13574;52.040;5.692;2023-02-26T08:10:26;2.88;;;0.95;;
25717;SDS011;13574;52.040;5.692;2023-02-26T08:12:52;2.38;;;0.75;;
25717;SDS011;13574;52.040;5.692;2023-02-26T08:15:17;4.82;;;0.98;;
25717;SDS011;13574;52.040;5.692;2023-02-26T08:17:43;3.70;;;0.70;;
25717;SDS011;13574;52.040;5.692;2023-02-26T08:20:09;4.95;;;0.90;;
25717;SDS011;13574;52.040;5.692;2023-02-26T08:22:36;1.70;;;0.80;;
25717;SDS011;13574;52.040;5.692;2023-02-26T08:25:01;2.08;;;0.65;;
25717;SDS011;13574;52.040;5.692;2023-02-26T08:27:28;3.03;;;0.80;;
25717;SDS011;13574;52.040;5.692;2023-02-26T08:29:53;3.90;;;0.77;;
25717;SDS011;13574;52.040;5.692;2023-02-26T08:32:19;4.03;;;0.82;;
25717;SDS011;13574;52.040;5.692;2023-02-26T08:34:47;3.00;;;0.75;;
25717;SDS011;13574;52.040;5.692;2023-02-26T08:37:13;3.85;;;0.80;;
25717;SDS011;13574;52.040;5.692;2023-02-26T08:39:39;5.20;;;1.00;;
25717;SDS011;13574;52.040;5.692;2023-02-26T08:42:05;4.07;;;0.70;;
25717;SDS011;13574;52.040;5.692;2023-02-26T08:44:32;5.82;;;0.88;;
25717;SDS011;13574;52.040;5.692;2023-02-26T08:46:58;5.32;;;0.80;;
25717;SDS011;13574;52.040;5.692;2023-02-26T08:49:24;3.22;;;0.52;;
25717;SDS011;13574;52.040;5.692;2023-02-26T08:51:53;7.43;;;1.05;;
25717;SDS011;13574;52.040;5.692;2023-02-26T08:54:18;4.18;;;0.93;;
25717;SDS011;13574;52.040;5.692;2023-02-26T08:56:44;1.85;;;0.65;;
25717;SDS011;13574;52.040;5.692;2023-02-26T08:59:09;3.10;;;0.90;;
25717;SDS011;13574;52.040;5.692;2023-02-26T09:01:37;6.80;;;0.50;;
25717;SDS011;13574;52.040;5.692;2023-02-26T09:04:02;2.25;;;0.50;;
25717;SDS011;13574;52.040;5.692;2023-02-26T09:06:28;2.95;;;0.60;;
25717;SDS011;13574;52.040;5.692;2023-02-26T09:08:54;3.40;;;0.60;;
25717;SDS011;13574;52.040;5.692;2023-02-26T09:11:19;2.15;;;0.40;;
25717;SDS011;13574;52.040;5.692;2023-02-26T09:13:45;0.70;;;0.40;;
25717;SDS011;13574;52.040;5.692;2023-02-26T09:16:10;2.90;;;0.60;;
25717;SDS011;13574;52.040;5.692;2023-02-26T09:18:36;1.17;;;0.70;;
25717;SDS011;13574;52.040;5.692;2023-02-26T09:21:02;3.75;;;0.70;;
25717;SDS011;13574;52.040;5.692;2023-02-26T09:23:28;2.67;;;0.50;;
25717;SDS011;13574;52.040;5.692;2023-02-26T09:25:57;1.58;;;0.50;;
25717;SDS011;13574;52.040;5.692;2023-02-26T09:28:23;3.45;;;0.60;;
25717;SDS011;13574;52.040;5.692;2023-02-26T09:30:53;3.50;;;0.90;;
25717;SDS011;13574;52.040;5.692;2023-02-26T09:33:19;3.55;;;0.50;;
25717;SDS011;13574;52.040;5.692;2023-02-26T09:35:47;2.75;;;0.50;;
25717;SDS011;13574;52.040;5.692;2023-02-26T09:38:13;2.45;;;0.68;;
25717;SDS011;13574;52.040;5.692;2023-02-26T09:46:37;1.90;;;0.63;;
25717;SDS011;13574;52.040;5.692;2023-02-26T09:55:04;5.43;;;0.57;;
25717;SDS011;13574;52.040;5.692;2023-02-26T09:57:41;1.67;;;0.50;;
25717;SDS011;13574;52.040;5.692;2023-02-26T10:08:38;3.20;;;0.63;;
25717;SDS011;13574;52.040;5.692;2023-02-26T10:11:30;3.33;;;0.75;;
25717;SDS011;13574;52.040;5.692;2023-02-26T10:14:31;4.25;;;0.80;;
25717;SDS011;13574;52.040;5.692;2023-02-26T10:17:11;1.38;;;0.50;;
25717;SDS011;13574;52.040;5.692;2023-02-26T10:19:47;1.65;;;0.60;;
25717;SDS011;13574;52.040;5.692;2023-02-26T10:22:24;3.08;;;0.75;;
25717;SDS011;13574;52.040;5.692;2023-02-26T10:24:56;2.80;;;0.60;;
25717;SDS011;13574;52.040;5.692;2023-02-26T10:27:43;2.25;;;0.55;;
25717;SDS011;13574;52.040;5.692;2023-02-26T10:30:42;1.02;;;0.40;;
25717;SDS011;13574;52.040;5.692;2023-02-26T10:33:35;2.13;;;0.70;;
25717;SDS011;13574;52.040;5.692;2023-02-26T10:39:00;2.08;;;0.50;;
25717;SDS011;13574;52.040;5.692;2023-02-26T10:41:29;1.45;;;0.50;;
25717;SDS011;13574;52.040;5.692;2023-02-26T10:46:41;3.05;;;0.60;;
25717;SDS011;13574;52.040;5.692;2023-02-26T10:52:16;3.05;;;0.70;;
25717;SDS011;13574;52.040;5.692;2023-02-26T10:54:46;1.00;;;0.50;;
25717;SDS011;13574;52.040;5.692;2023-02-26T10:57:36;5.20;;;0.80;;
25717;SDS011;13574;52.040;5.692;2023-02-26T11:00:15;3.13;;;0.52;;
25717;SDS011;13574;52.040;5.692;2023-02-26T11:02:50;4.15;;;0.60;;
25717;SDS011;13574;52.040;5.692;2023-02-26T11:05:19;2.95;;;0.60;;
25717;SDS011;13574;52.040;5.692;2023-02-26T11:07:49;3.25;;;0.60;;
25717;SDS011;13574;52.040;5.692;2023-02-26T11:10:19;3.63;;;0.60;;
25717;SDS011;13574;52.040;5.692;2023-02-26T11:12:48;2.60;;;0.55;;
25717;SDS011;13574;52.040;5.692;2023-02-26T11:15:15;2.97;;;0.60;;
25717;SDS011;13574;52.040;5.692;2023-02-26T11:17:44;2.10;;;0.73;;
25717;SDS011;13574;52.040;5.692;2023-02-26T11:20:23;1.92;;;0.50;;
25717;SDS011;13574;52.040;5.692;2023-02-26T11:22:54;1.90;;;0.43;;
25717;SDS011;13574;52.040;5.692;2023-02-26T11:25:24;0.82;;;0.40;;
25717;SDS011;13574;52.040;5.692;2023-02-26T11:28:01;3.45;;;0.70;;
25717;SDS011;13574;52.040;5.692;2023-02-26T11:30:37;0.73;;;0.32;;
25717;SDS011;13574;52.040;5.692;2023-02-26T11:33:04;2.80;;;0.60;;
25717;SDS011;13574;52.040;5.692;2023-02-26T11:35:39;2.30;;;0.70;;
25717;SDS011;13574;52.040;5.692;2023-02-26T11:38:05;3.63;;;0.50;;
25717;SDS011;13574;52.040;5.692;2023-02-26T11:40:40;3.60;;;0.60;;
25717;SDS011;13574;52.040;5.692;2023-02-26T11:43:07;1.58;;;0.40;;
25717;SDS011;13574;52.040;5.692;2023-02-26T11:45:38;1.50;;;0.50;;
25717;SDS011;13574;52.040;5.692;2023-02-26T11:48:10;1.95;;;0.73;;
25717;SDS011;13574;52.040;5.692;2023-02-26T11:50:44;1.85;;;0.60;;
25717;SDS011;13574;52.040;5.692;2023-02-26T11:53:22;1.83;;;0.50;;
25717;SDS011;13574;52.040;5.692;2023-02-26T11:56:02;3.13;;;0.68;;
25717;SDS011;13574;52.040;5.692;2023-02-26T11:58:34;1.80;;;0.70;;
25717;SDS011;13574;52.040;5.692;2023-02-26T12:01:02;3.83;;;0.60;;
25717;SDS011;13574;52.040;5.692;2023-02-26T12:03:31;2.35;;;0.63;;
25717;SDS011;13574;52.040;5.692;2023-02-26T12:05:58;2.63;;;0.55;;
25717;SDS011;13574;52.040;5.692;2023-02-26T12:08:30;5.82;;;0.60;;
25717;SDS011;13574;52.040;5.692;2023-02-26T12:14:26;2.08;;;0.60;;
25717;SDS011;13574;52.040;5.692;2023-02-26T12:44:59;1.75;;;0.40;;
25717;SDS011;13574;52.040;5.692;2023-02-26T13:12:44;1.85;;;0.52;;
25717;SDS011;13574;52.040;5.692;2023-02-26T13:18:27;2.00;;;0.52;;
25717;SDS011;13574;52.040;5.692;2023-02-26T13:21:02;1.15;;;0.60;;
25717;SDS011;13574;52.040;5.692;2023-02-26T13:23:38;2.17;;;0.40;;
25717;SDS011;13574;52.040;5.692;2023-02-26T13:26:13;0.70;;;0.33;;
25717;SDS011;13574;52.040;5.692;2023-02-26T13:28:47;3.22;;;0.50;;
25717;SDS011;13574;52.040;5.692;2023-02-26T13:33:48;1.58;;;0.40;;
25717;SDS011;13574;52.040;5.692;2023-02-26T13:36:15;1.15;;;0.40;;
25717;SDS011;13574;52.040;5.692;2023-02-26T13:53:32;1.45;;;0.65;;
25717;SDS011;13574;52.040;5.692;2023-02-26T13:56:16;2.22;;;0.55;;
25717;SDS011;13574;52.040;5.692;2023-02-26T14:06:56;3.10;;;0.68;;
25717;SDS011;13574;52.040;5.692;2023-02-26T14:14:22;2.03;;;0.60;;
25717;SDS011;13574;52.040;5.692;2023-02-26T14:16:56;1.67;;;0.50;;
25717;SDS011;13574;52.040;5.692;2023-02-26T14:20:25;1.33;;;0.40;;
25717;SDS011;13574;52.040;5.692;2023-02-26T14:27:47;5.20;;;2.80;;
25717;SDS011;13574;52.040;5.692;2023-02-26T14:30:15;2.00;;;0.60;;
25717;SDS011;13574;52.040;5.692;2023-02-26T14:35:41;3.42;;;1.70;;
25717;SDS011;13574;52.040;5.692;2023-02-26T14:38:12;1.58;;;0.57;;
25717;SDS011;13574;52.040;5.692;2023-02-26T14:40:41;1.92;;;0.60;;
25717;SDS011;13574;52.040;5.692;2023-02-26T14:43:15;1.38;;;0.70;;
25717;SDS011;13574;52.040;5.692;2023-02-26T14:45:50;1.05;;;0.40;;
25717;SDS011;13574;52.040;5.692;2023-02-26T14:48:16;2.50;;;0.80;;
25717;SDS011;13574;52.040;5.692;2023-02-26T14:56:00;1.52;;;0.52;;
25717;SDS011;13574;52.040;5.692;2023-02-26T15:10:01;1.55;;;0.40;;
25717;SDS011;13574;52.040;5.692;2023-02-26T15:26:25;0.28;;;0.22;;
25717;SDS011;13574;52.040;5.692;2023-02-26T15:28:53;3.05;;;0.50;;
25717;SDS011;13574;52.040;5.692;2023-02-26T15:31:26;3.38;;;0.43;;
25717;SDS011;13574;52.040;5.692;2023-02-26T15:33:56;3.33;;;1.50;;
25717;SDS011;13574;52.040;5.692;2023-02-26T15:36:22;2.35;;;1.35;;
25717;SDS011;13574;52.040;5.692;2023-02-26T15:38:55;1.35;;;0.40;;
25717;SDS011;13574;52.040;5.692;2023-02-26T15:41:23;2.53;;;1.10;;
25717;SDS011;13574;52.040;5.692;2023-02-26T15:43:52;2.20;;;0.70;;
25717;SDS011;13574;52.040;5.692;2023-02-26T15:46:30;1.52;;;0.57;;
25717;SDS011;13574;52.040;5.692;2023-02-26T15:49:01;1.27;;;0.43;;
25717;SDS011;13574;52.040;5.692;2023-02-26T15:51:31;2.25;;;0.50;;
25717;SDS011;13574;52.040;5.692;2023-02-26T15:53:58;2.47;;;0.43;;
25717;SDS011;13574;52.040;5.692;2023-02-26T15:56:28;1.02;;;0.50;;
25717;SDS011;13574;52.040;5.692;2023-02-26T15:59:01;3.17;;;0.70;;
25717;SDS011;13574;52.040;5.692;2023-02-26T16:01:41;2.83;;;0.70;;
25717;SDS011;13574;52.040;5.692;2023-02-26T16:04:10;3.28;;;1.58;;
25717;SDS011;13574;52.040;5.692;2023-02-26T16:06:39;2.97;;;1.40;;
25717;SDS011;13574;52.040;5.692;2023-02-26T16:09:08;2.28;;;0.57;;
25717;SDS011;13574;52.040;5.692;2023-02-26T16:11:54;1.88;;;0.40;;
25717;SDS011;13574;52.040;5.692;2023-02-26T16:14:26;2.67;;;0.50;;
25717;SDS011;13574;52.040;5.692;2023-02-26T16:16:55;2.10;;;0.60;;
25717;SDS011;13574;52.040;5.692;2023-02-26T16:19:41;1.83;;;0.43;;
25717;SDS011;13574;52.040;5.692;2023-02-26T16:22:29;2.45;;;0.52;;
25717;SDS011;13574;52.040;5.692;2023-02-26T16:26:17;1.65;;;0.57;;
25717;SDS011;13574;52.040;5.692;2023-02-26T16:28:48;1.13;;;0.40;;
25717;SDS011;13574;52.040;5.692;2023-02-26T16:31:25;3.28;;;0.52;;
25717;SDS011;13574;52.040;5.692;2023-02-26T16:37:08;2.70;;;0.47;;
25717;SDS011;13574;52.040;5.692;2023-02-26T16:39:46;4.13;;;1.60;;
25717;SDS011;13574;52.040;5.692;2023-02-26T16:42:43;6.28;;;1.77;;
25717;SDS011;13574;52.040;5.692;2023-02-26T16:48:31;2.72;;;0.85;;
25717;SDS011;13574;52.040;5.692;2023-02-26T16:51:22;5.45;;;1.15;;
25717;SDS011;13574;52.040;5.692;2023-02-26T16:54:00;4.47;;;0.90;;
25717;SDS011;13574;52.040;5.692;2023-02-26T16:56:41;1.77;;;0.80;;
25717;SDS011;13574;52.040;5.692;2023-02-26T17:01:42;1.70;;;0.73;;
25717;SDS011;13574;52.040;5.692;2023-02-26T17:04:16;3.80;;;1.40;;
25717;SDS011;13574;52.040;5.692;2023-02-26T17:06:43;2.45;;;0.73;;
25717;SDS011;13574;52.040;5.692;2023-02-26T17:12:03;4.20;;;0.82;;
25717;SDS011;13574;52.040;5.692;2023-02-26T17:14:41;2.55;;;0.80;;
25717;SDS011;13574;52.040;5.692;2023-02-26T17:17:15;4.72;;;2.65;;
25717;SDS011;13574;52.040;5.692;2023-02-26T17:19:42;6.03;;;0.80;;
25717;SDS011;13574;52.040;5.692;2023-02-26T17:22:10;4.18;;;1.35;;
25717;SDS011;13574;52.040;5.692;2023-02-26T17:24:38;5.15;;;1.40;;
25717;SDS011;13574;52.040;5.692;2023-02-26T17:27:09;5.90;;;1.50;;
25717;SDS011;13574;52.040;5.692;2023-02-26T17:29:39;2.83;;;0.90;;
25717;SDS011;13574;52.040;5.692;2023-02-26T17:32:11;8.98;;;1.30;;
25717;SDS011;13574;52.040;5.692;2023-02-26T17:34:48;6.38;;;2.97;;
25717;SDS011;13574;52.040;5.692;2023-02-26T17:37:14;4.00;;;1.73;;
25717;SDS011;13574;52.040;5.692;2023-02-26T17:39:41;3.80;;;1.98;;
25717;SDS011;13574;52.040;5.692;2023-02-26T17:42:14;8.70;;;1.33;;
25717;SDS011;13574;52.040;5.692;2023-02-26T17:44:43;6.85;;;1.35;;
25717;SDS011;13574;52.040;5.692;2023-02-26T17:47:16;4.90;;;1.10;;
25717;SDS011;13574;52.040;5.692;2023-02-26T17:49:44;4.60;;;1.10;;
25717;SDS011;13574;52.040;5.692;2023-02-26T17:52:17;4.15;;;1.50;;
25717;SDS011;13574;52.040;5.692;2023-02-26T17:54:44;5.80;;;1.98;;
25717;SDS011;13574;52.040;5.692;2023-02-26T17:57:15;5.70;;;1.17;;
25717;SDS011;13574;52.040;5.692;2023-02-26T17:59:45;6.40;;;1.20;;
25717;SDS011;13574;52.040;5.692;2023-02-26T18:02:16;4.20;;;1.65;;
25717;SDS011;13574;52.040;5.692;2023-02-26T18:04:46;4.68;;;1.02;;
25717;SDS011;13574;52.040;5.692;2023-02-26T18:07:15;10.85;;;2.60;;
25717;SDS011;13574;52.040;5.692;2023-02-26T18:09:42;4.38;;;1.38;;
25717;SDS011;13574;52.040;5.692;2023-02-26T18:12:19;5.40;;;1.47;;
25717;SDS011;13574;52.040;5.692;2023-02-26T18:14:46;7.63;;;4.35;;
25717;SDS011;13574;52.040;5.692;2023-02-26T18:17:13;6.57;;;1.83;;
25717;SDS011;13574;52.040;5.692;2023-02-26T18:19:43;7.28;;;1.38;;
25717;SDS011;13574;52.040;5.692;2023-02-26T18:22:13;5.35;;;1.25;;
25717;SDS011;13574;52.040;5.692;2023-02-26T18:24:40;6.70;;;1.33;;
25717;SDS011;13574;52.040;5.692;2023-02-26T18:27:14;4.43;;;1.25;;
25717;SDS011;13574;52.040;5.692;2023-02-26T18:29:41;6.63;;;1.40;;
25717;SDS011;13574;52.040;5.692;2023-02-26T18:32:11;3.45;;;1.35;;
25717;SDS011;13574;52.040;5.692;2023-02-26T18:34:38;5.93;;;2.78;;
25717;SDS011;13574;52.040;5.692;2023-02-26T18:37:04;5.55;;;2.65;;
25717;SDS011;13574;52.040;5.692;2023-02-26T18:39:30;9.05;;;3.55;;
25717;SDS011;13574;52.040;5.692;2023-02-26T18:41:58;7.18;;;2.88;;
25717;SDS011;13574;52.040;5.692;2023-02-26T18:44:24;5.45;;;2.88;;
25717;SDS011;13574;52.040;5.692;2023-02-26T18:46:52;6.90;;;1.75;;
25717;SDS011;13574;52.040;5.692;2023-02-26T18:49:19;5.95;;;2.00;;
25717;SDS011;13574;52.040;5.692;2023-02-26T18:51:45;7.07;;;2.20;;
25717;SDS011;13574;52.040;5.692;2023-02-26T18:54:11;6.07;;;3.10;;
25717;SDS011;13574;52.040;5.692;2023-02-26T18:56:36;6.88;;;2.25;;